Aeroporto :
LOGIN :

Iscrizione | Disclaimer

   EN    FR    IT 

 










Sommario :    VFR   VFR Marginale   IFR   IFR Intensivo   IFR Molto Intensivo
Visibilità : 
Base nubi : 
>= 8 km
>= 3000ft
5 / 8 km
1000 / 3000 ft
1500m / 5 km
500 / 1000 ft
800 / 1500m
200 / 500 ft
< 800m
< 200 ft
Simboli :   Temporali  Nebbia  Neve Forte  Precipitazioni Forti  Vento > 20 kt
SIGMETs :   Varie  Temporali  Ghiacco  Turbolenza  Onda orograficha  Ceneri Vulcaniche






- Altitudine del aeroporto : 83 ft
- Codice IATA : LHR


EGLL - London Heathrow

ULTIMO METAR :
  • 200220Z AUTO VRB02KT 8000 NCD 01/00 Q1049 NOSIG

METARs OBSOLETI :
  • 200150Z AUTO 28005KT 8000 NCD 01/00 Q1049
  • 200120Z AUTO VRB02KT 9999 NCD 01/00 Q1049
  • 200050Z AUTO 30002KT 9999 NCD 01/01 Q1049 NOSIG
  • 200020Z AUTO VRB02KT 9999 NCD 01/01 Q1049 NOSIG
  • 192350Z AUTO 28003KT 9999 NCD 01/00 Q1049 NOSIG

TAF AMD TAF EGLL
Valido dal 20 a 00 ore il 21 a 06 ore UTC


192354Z 2000/2106 30003KT CAVOK
TEMPO 2000/2010 5000 HZ
PROB30 2000/2009 0600 FZFG BKN000
BECMG 2018/2021 8000
PROB30 2021/2024 2000 BR MIFG
BECMG 2100/2103 4000 BR
PROB30
TEMPO 2100/2106 0300 FZFG VV///



MetMap, La meteo Aeronautica in un colpo d'occhio ! - Copyright ORBIFLY Dicembre 2007 - Disclaimer

ORBIFLY MET'MAP TEAM :

Programmazione e sviluppo : Alexandra Zaïnal
Concezione : Baudouin d'Aumeries
Aiuto per la programmazione : Marc-Olivier Méhu
Supporto tecnico e logistico : Manuel Goepfert
Aiuto per la traduzione : Arnaldo La Scala

Contatto : metmap@orbifly.com




FONTI E CREDITI :

   NOAA